Time;durP1;ratioP1;P1;durP2;ratioP2;P2;SDS_P1;SDS_P2;PMS_P1;PMS_P2;Temp;Humidity;BMP_temperature;BMP_pressure;BME280_temperature;BME280_humidity;BME280_pressure;Samples;Min_cycle;Max_cycle;Signal;HPM_P1;HPM_P2
2022/11/03 00:01:42;;;;;;;13.85;2.42;;;11.90;99.90;;;;;;4956356;28;20035;-63
2022/11/03 00:04:10;;;;;;;15.02;2.65;;;11.90;99.90;;;;;;4940037;29;20139;-64
2022/11/03 00:06:36;;;;;;;8.98;2.40;;;11.70;99.90;;;;;;4956852;29;20043;-63
2022/11/03 00:09:04;;;;;;;13.07;2.45;;;11.90;99.90;;;;;;4939903;29;20061;-63
2022/11/03 00:11:33;;;;;;;9.30;2.55;;;11.90;99.90;;;;;;4939419;29;20045;-63
2022/11/03 00:13:59;;;;;;;10.18;2.80;;;11.90;99.90;;;;;;4948426;28;20047;-62
2022/11/03 00:16:25;;;;;;;10.32;2.08;;;11.90;99.90;;;;;;4957099;29;20047;-62
2022/11/03 00:18:52;;;;;;;13.70;2.70;;;11.70;99.90;;;;;;4957329;29;20047;-62
2022/11/03 00:21:17;;;;;;;14.68;5.28;;;11.80;99.90;;;;;;4956971;29;20081;-63
2022/11/03 00:23:44;;;;;;;9.13;2.42;;;11.80;99.90;;;;;;4957133;29;20070;-63
2022/11/03 00:26:12;;;;;;;12.63;3.63;;;11.60;99.90;;;;;;4938370;29;20043;-63
2022/11/03 00:28:40;;;;;;;12.85;3.00;;;11.70;99.90;;;;;;4955647;28;20054;-63
2022/11/03 00:31:08;;;;;;;9.13;2.92;;;11.70;99.90;;;;;;4957215;29;20360;-63
2022/11/03 00:33:35;;;;;;;12.45;4.00;;;11.70;99.90;;;;;;4939546;29;20122;-63
2022/11/03 00:36:01;;;;;;;16.38;2.90;;;11.80;99.90;;;;;;4939576;29;20050;-63
2022/11/03 00:38:28;;;;;;;10.35;3.20;;;11.70;99.90;;;;;;4956231;29;20457;-63
2022/11/03 00:40:58;;;;;;;14.05;2.90;;;11.70;99.90;;;;;;4939329;29;20074;-63
2022/11/03 00:43:25;;;;;;;8.80;3.03;;;11.70;99.90;;;;;;4955027;28;20039;-63
2022/11/03 00:45:51;;;;;;;10.57;2.85;;;11.60;99.90;;;;;;4938709;29;20047;-63
2022/11/03 00:48:29;;;;;;;12.85;2.95;;;11.60;99.90;;;;;;4956898;29;20407;-63
2022/11/03 00:51:17;;;;;;;9.80;2.53;;;11.60;99.90;;;;;;4939355;29;20046;-62
2022/11/03 00:53:49;;;;;;;14.95;3.60;;;11.60;99.90;;;;;;4955244;29;20044;-62
2022/11/03 00:56:18;;;;;;;12.20;2.40;;;11.50;99.90;;;;;;4938918;29;20054;-63
2022/11/03 00:58:44;;;;;;;13.82;2.78;;;11.70;99.90;;;;;;4938536;29;20039;-63
2022/11/03 01:01:11;;;;;;;7.35;2.17;;;11.50;99.90;;;;;;4956239;29;20544;-62
2022/11/03 01:03:39;;;;;;;10.85;2.88;;;11.60;99.90;;;;;;4938994;29;20035;-63
2022/11/03 01:08:55;;;;;;;11.45;2.58;;;11.50;99.90;;;;;;4938318;29;20051;-62
2022/11/03 01:14:08;;;;;;;10.98;3.38;;;;;;;;;;4948328;28;20051;-63
2022/11/03 01:16:34;;;;;;;9.93;2.80;;;11.60;99.90;;;;;;4938729;29;20039;-63
2022/11/03 01:19:00;;;;;;;16.88;3.00;;;11.70;99.90;;;;;;4956100;29;20084;-63
2022/11/03 01:21:26;;;;;;;8.23;2.58;;;11.60;99.90;;;;;;4939016;29;20038;-62
2022/11/03 01:23:51;;;;;;;10.80;2.50;;;11.70;99.90;;;;;;4955457;29;20147;-63
2022/11/03 01:26:17;;;;;;;14.35;3.60;;;11.70;99.90;;;;;;4955435;29;20043;-63
2022/11/03 01:28:45;;;;;;;12.30;2.42;;;11.60;99.90;;;;;;4937694;29;20051;-63
2022/11/03 01:31:22;;;;;;;9.38;2.70;;;11.50;99.90;;;;;;4955930;29;20179;-62
2022/11/03 01:33:50;;;;;;;10.65;2.60;;;11.60;99.90;;;;;;4955644;29;20130;-63
2022/11/03 01:36:16;;;;;;;10.88;2.22;;;11.50;99.90;;;;;;4955108;29;20122;-63
2022/11/03 01:38:43;;;;;;;14.88;3.28;;;11.60;99.90;;;;;;4938130;29;20039;-63
2022/11/03 01:41:14;;;;;;;8.20;2.33;;;11.60;99.90;;;;;;4942105;29;20054;-63
2022/11/03 01:43:40;;;;;;;10.43;2.90;;;11.50;99.90;;;;;;4955178;29;20098;-63
2022/11/03 01:46:18;;;;;;;18.67;3.72;;;11.40;99.90;;;;;;4953324;29;20039;-63
2022/11/03 01:48:48;;;;;;;20.20;2.70;;;11.20;99.90;;;;;;4938185;29;20042;-63
2022/11/03 01:51:17;;;;;;;18.38;4.18;;;11.20;99.90;;;;;;4955414;29;20039;-62
2022/11/03 01:53:46;;;;;;;11.63;3.17;;;11.40;99.90;;;;;;4938018;29;20039;-63
2022/11/03 01:56:14;;;;;;;12.60;2.92;;;11.30;99.90;;;;;;4954549;28;20134;-63
2022/11/03 01:58:43;;;;;;;11.50;2.80;;;11.50;99.90;;;;;;4938096;29;20047;-63
2022/11/03 02:01:10;;;;;;;12.63;2.85;;;11.40;99.90;;;;;;4953855;29;20053;-63
2022/11/03 02:03:50;;;;;;;7.72;2.47;;;11.30;99.90;;;;;;4955204;29;20039;-63
2022/11/03 02:06:19;;;;;;;9.20;2.63;;;11.40;99.90;;;;;;4937256;29;20085;-63
2022/11/03 02:08:55;;;;;;;11.15;2.72;;;11.30;99.90;;;;;;4955419;29;20051;-63
2022/11/03 02:14:12;;;;;;;10.57;3.13;;;11.40;99.90;;;;;;4954985;29;20417;-63
2022/11/03 02:16:40;;;;;;;12.25;3.22;;;11.30;99.90;;;;;;4955266;29;20040;-63
2022/11/03 02:19:18;;;;;;;13.30;3.08;;;11.30;99.90;;;;;;4954905;29;20455;-63
2022/11/03 02:21:54;;;;;;;20.70;2.88;;;11.30;99.90;;;;;;4954465;29;20043;-63
2022/11/03 02:24:25;;;;;;;10.70;2.40;;;11.30;99.90;;;;;;4937817;29;20047;-63
2022/11/03 02:26:54;;;;;;;14.85;3.63;;;11.50;99.90;;;;;;4937090;29;20043;-63
2022/11/03 02:29:19;;;;;;;12.88;2.90;;;11.30;99.90;;;;;;4937891;29;20086;-63
2022/11/03 02:31:50;;;;;;;14.63;3.25;;;11.20;99.90;;;;;;4937774;29;20043;-63
2022/11/03 02:34:23;;;;;;;13.80;2.60;;;11.30;99.90;;;;;;4954289;28;20066;-63
2022/11/03 02:37:13;;;;;;;11.20;2.38;;;11.20;99.90;;;;;;4955088;29;20127;-63
2022/11/03 02:39:39;;;;;;;15.50;3.30;;;;;;;;;;4943082;29;20095;-63
2022/11/03 02:42:06;;;;;;;13.02;3.13;;;11.40;99.90;;;;;;4952967;28;20043;-63
2022/11/03 02:44:33;;;;;;;15.30;3.75;;;11.20;99.90;;;;;;4921998;29;20500;-63
2022/11/03 02:47:02;;;;;;;11.23;2.90;;;11.20;99.90;;;;;;4954914;29;20118;-63
2022/11/03 02:49:27;;;;;;;8.80;2.30;;;11.30;99.90;;;;;;4935158;29;20119;-62
2022/11/03 02:52:04;;;;;;;17.02;2.85;;;;;;;;;;4932527;29;20122;-63
2022/11/03 02:54:43;;;;;;;12.50;3.05;;;11.60;99.90;;;;;;4956498;28;20062;-63
2022/11/03 02:57:17;;;;;;;11.98;2.45;;;11.30;99.90;;;;;;4957851;28;20083;-63
2022/11/03 02:59:51;;;;;;;14.75;3.15;;;11.50;99.90;;;;;;4958692;29;20031;-63
2022/11/03 03:02:27;;;;;;;11.27;3.10;;;11.30;99.90;;;;;;4933897;29;20494;-63
2022/11/03 03:04:56;;;;;;;18.38;3.30;;;11.30;99.90;;;;;;4940352;29;20106;-64
2022/11/03 03:07:31;;;;;;;8.65;2.53;;;11.20;99.90;;;;;;4958626;29;20039;-63
2022/11/03 03:10:08;;;;;;;17.23;3.67;;;11.30;99.90;;;;;;4958473;29;20173;-63
2022/11/03 03:12:38;;;;;;;12.23;3.65;;;11.40;99.90;;;;;;4957672;28;20055;-63
2022/11/03 03:15:07;;;;;;;9.73;2.67;;;11.30;99.90;;;;;;4940762;29;20047;-63
2022/11/03 03:17:53;;;;;;;10.00;2.78;;;11.30;99.90;;;;;;4958079;29;20413;-63
2022/11/03 03:20:25;;;;;;;11.15;2.75;;;;;;;;;;4954390;29;20046;-62
2022/11/03 03:23:07;;;;;;;14.60;2.60;;;11.40;99.90;;;;;;4958308;29;20405;-63
2022/11/03 03:25:47;;;;;;;15.95;3.30;;;11.30;99.90;;;;;;4927679;28;20054;-63
2022/11/03 03:28:21;;;;;;;11.48;2.58;;;11.40;99.90;;;;;;4956388;28;20110;-63
2022/11/03 03:30:50;;;;;;;9.52;2.55;;;11.20;99.90;;;;;;4957425;28;20039;-63
2022/11/03 03:33:17;;;;;;;19.90;3.38;;;11.10;99.90;;;;;;4956830;29;20039;-63
2022/11/03 03:35:46;;;;;;;11.18;3.05;;;11.20;99.90;;;;;;4957795;29;20406;-63
2022/11/03 03:38:24;;;;;;;13.98;3.15;;;11.30;99.90;;;;;;4958012;29;20079;-63
2022/11/03 03:40:54;;;;;;;14.90;2.72;;;11.20;99.90;;;;;;4956254;28;20032;-63
2022/11/03 03:43:22;;;;;;;11.90;2.88;;;11.30;99.90;;;;;;4957854;29;20042;-63
2022/11/03 03:45:52;;;;;;;14.23;2.78;;;11.30;99.90;;;;;;4957704;28;20059;-63
2022/11/03 03:48:17;;;;;;;10.27;2.58;;;11.40;99.90;;;;;;4940541;29;20099;-63
2022/11/03 03:50:46;;;;;;;14.82;2.88;;;11.20;99.90;;;;;;4940556;29;20074;-63
2022/11/03 03:53:14;;;;;;;10.10;2.40;;;11.20;99.90;;;;;;4957716;29;20043;-63
2022/11/03 03:55:42;;;;;;;13.38;3.28;;;11.30;99.90;;;;;;4953503;28;20395;-63
2022/11/03 03:58:11;;;;;;;13.57;3.08;;;11.20;99.90;;;;;;4955672;28;20506;-63
2022/11/03 04:00:38;;;;;;;9.27;2.42;;;11.20;99.90;;;;;;4955593;28;20039;-62
2022/11/03 04:03:05;;;;;;;14.88;3.90;;;11.40;99.90;;;;;;4948452;29;20039;-63
2022/11/03 04:05:31;;;;;;;15.38;2.92;;;11.30;99.90;;;;;;4957194;29;20047;-63
2022/11/03 04:07:57;;;;;;;9.65;2.05;;;11.40;99.90;;;;;;4956552;29;20477;-63
2022/11/03 04:10:23;;;;;;;15.75;3.67;;;11.20;99.90;;;;;;4957244;29;20039;-63
2022/11/03 04:23:48;;;;;;;12.18;3.30;;;11.50;99.90;;;;;;4928527;29;20043;-63
2022/11/03 04:26:16;;;;;;;7.18;2.45;;;11.50;99.90;;;;;;4939786;29;20043;-63
2022/11/03 04:28:42;;;;;;;13.05;3.53;;;11.60;99.90;;;;;;4956994;29;20047;-63
2022/11/03 04:31:16;;;;;;;13.55;2.72;;;11.50;99.90;;;;;;4956365;29;20042;-63
2022/11/03 04:33:43;;;;;;;11.57;3.10;;;11.50;99.90;;;;;;4939659;29;20035;-63
2022/11/03 04:36:23;;;;;;;15.02;3.08;;;11.50;99.90;;;;;;4954928;28;20500;-63
2022/11/03 04:38:49;;;;;;;10.65;2.90;;;;;;;;;;4939733;29;20089;-63
2022/11/03 04:41:19;;;;;;;18.58;3.70;;;11.60;99.90;;;;;;4953533;28;20039;-63
2022/11/03 04:43:45;;;;;;;10.63;3.05;;;11.60;99.90;;;;;;4939627;29;20035;-63
2022/11/03 04:46:27;;;;;;;11.05;2.70;;;11.60;99.90;;;;;;4939332;29;20047;-63
2022/11/03 04:48:54;;;;;;;12.88;2.97;;;11.70;99.90;;;;;;4953488;29;20055;-63
2022/11/03 04:51:24;;;;;;;14.77;2.55;;;11.80;99.90;;;;;;4952586;28;20134;-63
2022/11/03 04:53:53;;;;;;;9.75;2.25;;;11.70;99.90;;;;;;4953283;29;20043;-63
2022/11/03 04:56:22;;;;;;;10.32;2.70;;;11.70;99.90;;;;;;4943897;28;20062;-63
2022/11/03 04:58:48;;;;;;;14.18;3.10;;;11.70;99.90;;;;;;4956341;29;20039;-63
2022/11/03 05:01:17;;;;;;;9.95;2.65;;;11.70;99.90;;;;;;4954013;28;20043;-62
2022/11/03 05:03:46;;;;;;;10.50;2.75;;;11.60;99.90;;;;;;4955974;29;20498;-63
2022/11/03 05:06:30;;;;;;;13.80;3.13;;;11.70;99.90;;;;;;4956091;29;20043;-63
2022/11/03 05:09:00;;;;;;;8.55;2.33;;;11.60;99.90;;;;;;4951656;29;20082;-63
2022/11/03 05:11:31;;;;;;;15.45;2.88;;;11.70;99.90;;;;;;4956141;28;20118;-63
2022/11/03 05:14:03;;;;;;;11.70;2.85;;;11.50;99.90;;;;;;4955550;29;20039;-63
2022/11/03 05:16:30;;;;;;;13.85;2.35;;;11.50;99.90;;;;;;4936536;29;20051;-63
2022/11/03 05:18:56;;;;;;;16.77;3.00;;;11.60;99.90;;;;;;4956050;29;20126;-63
2022/11/03 05:21:24;;;;;;;12.23;2.83;;;11.80;99.90;;;;;;4956063;29;20126;-63
2022/11/03 05:23:57;;;;;;;8.60;2.55;;;11.30;99.90;;;;;;4955999;29;20122;-63
2022/11/03 05:26:29;;;;;;;17.30;2.90;;;11.70;99.90;;;;;;4955873;29;20489;-62
2022/11/03 05:29:08;;;;;;;14.98;3.05;;;11.70;99.90;;;;;;4955087;28;20047;-63
2022/11/03 05:31:35;;;;;;;18.08;2.80;;;11.60;99.90;;;;;;4955103;29;20089;-62
2022/11/03 05:34:05;;;;;;;10.73;2.90;;;11.50;99.90;;;;;;4955775;29;20114;-63
2022/11/03 05:36:32;;;;;;;7.90;2.78;;;11.60;99.90;;;;;;4922370;29;20089;-62
2022/11/03 05:39:20;;;;;;;14.40;2.65;;;11.60;99.90;;;;;;4938711;29;20050;-63
2022/11/03 05:41:46;;;;;;;11.52;2.53;;;11.70;99.90;;;;;;4955290;29;20126;-63
2022/11/03 05:44:17;;;;;;;11.57;3.17;;;11.60;99.90;;;;;;4951574;28;20126;-63
2022/11/03 05:46:43;;;;;;;5.97;2.15;;;11.50;99.90;;;;;;4937858;29;20050;-63
2022/11/03 05:49:10;;;;;;;9.55;2.75;;;;;;;;;;4955717;29;20398;-63
2022/11/03 05:51:42;;;;;;;9.50;2.55;;;11.40;99.90;;;;;;4938137;29;20047;-63
2022/11/03 05:54:31;;;;;;;8.63;2.50;;;11.40;99.90;;;;;;4938120;29;20043;-63
2022/11/03 05:56:57;;;;;;;13.23;2.90;;;11.50;99.90;;;;;;4955223;29;20059;-63
2022/11/03 05:59:27;;;;;;;9.38;2.60;;;11.40;99.90;;;;;;4936260;29;20071;-63
2022/11/03 06:01:57;;;;;;;8.57;2.38;;;11.40;99.90;;;;;;4937938;29;20525;-63
2022/11/03 06:04:35;;;;;;;13.10;2.40;;;11.50;99.90;;;;;;4955295;29;20047;-62
2022/11/03 06:07:14;;;;;;;13.23;2.35;;;11.50;99.90;;;;;;4955127;28;20035;-63
2022/11/03 06:09:40;;;;;;;10.65;2.38;;;11.50;99.90;;;;;;4955473;29;20062;-63
2022/11/03 06:12:09;;;;;;;11.82;2.70;;;11.40;99.90;;;;;;4954414;29;20039;-63
2022/11/03 06:14:35;;;;;;;12.40;2.45;;;11.50;99.90;;;;;;4953467;28;20665;-63
2022/11/03 06:17:04;;;;;;;6.35;2.65;;;11.40;99.90;;;;;;4937226;29;20050;-63
2022/11/03 06:19:48;;;;;;;9.20;2.22;;;11.50;99.90;;;;;;4955133;29;20035;-63
2022/11/03 06:22:25;;;;;;;12.82;3.42;;;11.50;99.90;;;;;;4955321;29;20071;-62
2022/11/03 06:24:54;;;;;;;7.05;2.20;;;11.40;99.90;;;;;;4954044;28;20038;-63
2022/11/03 06:27:25;;;;;;;10.02;2.53;;;11.40;99.90;;;;;;4955037;29;20040;-63
2022/11/03 06:30:00;;;;;;;8.93;2.13;;;11.50;99.90;;;;;;4953842;28;20050;-63
2022/11/03 06:32:27;;;;;;;12.15;2.85;;;11.50;99.90;;;;;;4954427;29;20090;-63
2022/11/03 06:34:56;;;;;;;11.25;2.70;;;11.50;99.90;;;;;;4954866;29;20031;-62
2022/11/03 06:37:31;;;;;;;11.15;2.22;;;11.40;99.90;;;;;;4951100;29;20055;-63
2022/11/03 06:40:10;;;;;;;13.02;3.38;;;11.40;99.90;;;;;;4952303;29;20371;-63
2022/11/03 06:42:40;;;;;;;14.00;2.88;;;11.50;99.90;;;;;;4929688;29;20402;-63
2022/11/03 06:45:19;;;;;;;11.55;2.40;;;11.40;99.90;;;;;;4953085;28;20050;-63
2022/11/03 06:47:45;;;;;;;9.23;2.63;;;;;;;;;;4929751;29;20569;-63
2022/11/03 06:50:31;;;;;;;10.90;2.90;;;11.60;99.90;;;;;;4954860;29;20469;-63
2022/11/03 06:52:58;;;;;;;10.00;2.47;;;11.60;99.90;;;;;;4954674;29;20043;-63
2022/11/03 06:55:37;;;;;;;12.50;2.80;;;11.60;99.90;;;;;;4952309;29;20071;-63
2022/11/03 06:58:26;;;;;;;7.22;2.42;;;11.70;99.90;;;;;;4954615;29;20043;-63
2022/11/03 07:00:55;;;;;;;9.07;2.30;;;11.80;99.90;;;;;;4925680;29;20044;-63
2022/11/03 07:03:30;;;;;;;14.25;2.22;;;11.70;99.90;;;;;;4953775;29;20039;-63
2022/11/03 07:06:15;;;;;;;7.82;2.47;;;;;;;;;;4936952;29;20043;-62
2022/11/03 07:08:47;;;;;;;9.80;2.13;;;11.70;99.90;;;;;;4926767;29;20043;-62
2022/11/03 07:11:25;;;;;;;14.75;3.25;;;11.80;99.90;;;;;;4953450;29;20032;-62
2022/11/03 07:13:52;;;;;;;12.00;3.25;;;11.90;99.90;;;;;;4937450;28;20134;-62
2022/11/03 07:16:28;;;;;;;11.35;3.53;;;11.90;99.90;;;;;;4952564;29;20045;-60
2022/11/03 07:18:57;;;;;;;10.82;2.67;;;11.90;99.90;;;;;;4950754;29;20051;-62
2022/11/03 07:21:40;;;;;;;6.80;2.05;;;11.80;99.90;;;;;;4935717;29;20047;-61
2022/11/03 07:24:22;;;;;;;12.95;3.40;;;12.00;99.90;;;;;;4935884;29;20071;-62
2022/11/03 07:27:09;;;;;;;14.05;3.17;;;11.80;99.90;;;;;;4934086;29;20043;-61
2022/11/03 07:29:35;;;;;;;14.05;2.45;;;11.70;99.90;;;;;;4923318;29;20058;-61
2022/11/03 07:32:01;;;;;;;8.80;2.58;;;11.90;99.90;;;;;;4935764;29;20043;-62
2022/11/03 07:34:31;;;;;;;12.40;2.53;;;11.90;99.90;;;;;;4951354;29;20049;-62
2022/11/03 07:36:57;;;;;;;14.93;2.78;;;12.00;99.90;;;;;;4956306;28;20401;-62
2022/11/03 07:39:25;;;;;;;10.50;2.90;;;12.00;99.90;;;;;;4939561;29;20035;-61
2022/11/03 07:41:50;;;;;;;10.15;2.63;;;12.00;99.90;;;;;;4957717;29;20057;-61
2022/11/03 07:44:22;;;;;;;10.52;2.40;;;;;;;;;;4939760;29;20485;-59
2022/11/03 07:46:49;;;;;;;8.90;2.50;;;12.00;99.90;;;;;;4957254;28;20472;-61
2022/11/03 07:49:28;;;;;;;11.30;2.65;;;12.10;99.90;;;;;;4956269;29;20097;-60
2022/11/03 07:51:58;;;;;;;9.93;2.45;;;12.10;99.90;;;;;;4938984;29;20039;-61
2022/11/03 07:54:33;;;;;;;9.20;2.47;;;12.10;99.90;;;;;;4956928;28;20047;-61
2022/11/03 07:57:10;;;;;;;12.98;2.80;;;12.20;99.90;;;;;;4953176;28;20174;-63
2022/11/03 07:59:41;;;;;;;8.43;2.38;;;12.30;99.90;;;;;;4950311;28;21428;-63
2022/11/03 08:02:24;;;;;;;12.75;2.70;;;12.40;99.90;;;;;;4931719;29;20047;-63
2022/11/03 08:04:50;;;;;;;7.78;2.78;;;;;;;;;;4931116;29;20044;-62
2022/11/03 08:07:16;;;;;;;8.35;2.65;;;12.30;99.90;;;;;;4947853;29;20637;-63
2022/11/03 08:09:41;;;;;;;10.15;3.95;;;12.30;99.90;;;;;;4939152;29;20050;-64
2022/11/03 08:12:07;;;;;;;9.13;2.53;;;12.30;99.90;;;;;;4957242;29;20122;-63
2022/11/03 08:14:33;;;;;;;11.95;2.22;;;;;;;;;;4953123;28;20163;-63
2022/11/03 08:16:58;;;;;;;7.32;2.60;;;12.50;99.90;;;;;;4939998;29;20471;-64
2022/11/03 08:19:24;;;;;;;10.13;3.25;;;12.40;99.90;;;;;;4956790;28;20039;-63
2022/11/03 08:21:49;;;;;;;9.82;2.42;;;12.60;99.90;;;;;;4956532;29;20039;-64
2022/11/03 08:24:15;;;;;;;11.82;3.65;;;12.70;99.90;;;;;;4956694;29;20035;-63
2022/11/03 08:26:40;;;;;;;8.13;2.50;;;12.70;99.90;;;;;;4955978;28;20043;-64
2022/11/03 08:29:06;;;;;;;8.00;2.15;;;12.90;99.90;;;;;;4948462;28;20055;-64
2022/11/03 08:31:32;;;;;;;11.32;3.78;;;12.70;99.90;;;;;;4949837;29;20042;-63
2022/11/03 08:33:57;;;;;;;7.57;2.45;;;12.80;99.90;;;;;;4956610;29;20039;-64
2022/11/03 08:36:23;;;;;;;5.55;2.42;;;12.80;99.90;;;;;;4956155;29;20085;-63
2022/11/03 08:38:48;;;;;;;11.30;3.35;;;12.80;99.90;;;;;;4956284;29;20071;-64
2022/11/03 08:41:14;;;;;;;10.75;2.70;;;;;;;;;;4956738;29;20126;-62
2022/11/03 08:43:40;;;;;;;14.00;3.13;;;12.90;99.90;;;;;;4955676;28;20067;-64
2022/11/03 08:46:05;;;;;;;11.45;3.88;;;13.00;99.90;;;;;;4956900;29;20043;-64
2022/11/03 08:48:31;;;;;;;8.35;2.40;;;12.90;99.90;;;;;;4938237;29;20502;-64
2022/11/03 08:50:56;;;;;;;11.40;2.92;;;13.00;99.90;;;;;;4956674;29;20406;-64
2022/11/03 08:53:24;;;;;;;7.75;2.28;;;13.10;99.90;;;;;;4956447;29;20477;-64
2022/11/03 08:55:51;;;;;;;10.07;2.72;;;13.10;99.90;;;;;;4956095;29;20537;-64
2022/11/03 08:58:17;;;;;;;12.73;2.78;;;;;;;;;;4938325;29;20043;-64
2022/11/03 09:00:42;;;;;;;9.75;2.58;;;13.10;99.90;;;;;;4943352;29;20138;-64
2022/11/03 09:03:08;;;;;;;10.95;2.58;;;13.40;99.90;;;;;;4954458;28;20039;-64
2022/11/03 09:05:34;;;;;;;6.47;2.17;;;13.40;99.90;;;;;;4938879;29;20039;-64
2022/11/03 09:08:00;;;;;;;11.05;2.15;;;13.30;99.90;;;;;;4956153;29;20077;-64
2022/11/03 09:10:26;;;;;;;8.23;2.40;;;13.10;99.90;;;;;;4956285;29;20046;-64
2022/11/03 09:12:52;;;;;;;9.38;2.65;;;13.30;99.90;;;;;;4956245;29;20048;-64
2022/11/03 09:15:18;;;;;;;8.27;2.35;;;13.60;99.90;;;;;;4939072;29;20098;-64
2022/11/03 09:17:43;;;;;;;10.07;2.47;;;13.40;99.90;;;;;;4955525;28;20039;-64
2022/11/03 09:20:09;;;;;;;8.80;2.35;;;13.50;99.90;;;;;;4956123;29;20086;-64
2022/11/03 09:22:36;;;;;;;9.50;2.42;;;;;;;;;;4955964;29;20039;-64
2022/11/03 09:25:01;;;;;;;11.73;2.42;;;13.40;99.90;;;;;;4955910;29;20039;-64
2022/11/03 09:27:27;;;;;;;11.43;2.63;;;;;;;;;;4938314;29;20405;-63
2022/11/03 09:29:53;;;;;;;11.00;2.33;;;13.60;99.90;;;;;;4930277;29;20106;-64
2022/11/03 09:32:19;;;;;;;11.70;2.75;;;13.60;99.90;;;;;;4953886;28;20074;-64
2022/11/03 09:34:44;;;;;;;13.02;2.90;;;13.70;99.90;;;;;;4955573;29;20523;-64
2022/11/03 09:37:10;;;;;;;9.13;2.25;;;13.70;99.90;;;;;;4955856;29;20112;-64
2022/11/03 09:39:35;;;;;;;11.27;3.13;;;13.70;99.90;;;;;;4938378;29;20051;-64
2022/11/03 09:42:03;;;;;;;12.20;2.45;;;13.80;99.90;;;;;;4955142;28;20042;-64
2022/11/03 09:44:32;;;;;;;11.05;2.45;;;13.80;99.90;;;;;;4936048;29;20043;-65
2022/11/03 09:46:58;;;;;;;12.15;3.25;;;13.80;99.90;;;;;;4936044;29;20482;-64
2022/11/03 09:49:24;;;;;;;9.40;2.58;;;13.80;99.90;;;;;;4952764;28;20058;-64
2022/11/03 09:51:49;;;;;;;9.27;2.90;;;13.90;99.90;;;;;;4955275;28;20035;-65
2022/11/03 09:54:16;;;;;;;11.98;2.83;;;13.90;99.90;;;;;;4955447;28;20113;-65
2022/11/03 09:56:42;;;;;;;8.73;2.88;;;14.10;99.90;;;;;;4934403;29;20086;-63
2022/11/03 09:59:20;;;;;;;9.93;2.42;;;13.90;99.90;;;;;;4953814;28;20039;-64
2022/11/03 10:01:48;;;;;;;10.40;2.45;;;14.00;99.90;;;;;;4936308;29;20047;-64
2022/11/03 10:04:18;;;;;;;15.23;2.80;;;14.00;99.90;;;;;;4954824;29;20039;-64
2022/11/03 10:06:43;;;;;;;10.93;2.13;;;13.90;99.90;;;;;;4954290;29;20059;-64
2022/11/03 10:09:16;;;;;;;6.93;2.17;;;13.90;99.90;;;;;;4948596;28;20031;-63
2022/11/03 10:11:44;;;;;;;9.82;2.78;;;13.90;99.90;;;;;;4935012;28;20043;-63
2022/11/03 10:14:13;;;;;;;12.82;2.33;;;14.00;99.90;;;;;;4937289;28;20095;-64
2022/11/03 10:16:40;;;;;;;13.43;2.17;;;14.00;99.90;;;;;;4953912;28;20043;-64
2022/11/03 10:19:12;;;;;;;10.85;2.20;;;14.10;99.90;;;;;;4955907;28;20054;-64
2022/11/03 10:21:39;;;;;;;9.02;2.00;;;14.30;99.90;;;;;;4932455;28;20043;-64
2022/11/03 10:24:05;;;;;;;11.02;2.33;;;14.40;99.90;;;;;;4937123;28;20043;-64
2022/11/03 10:26:49;;;;;;;11.77;3.38;;;14.50;99.90;;;;;;4937844;28;20402;-64
2022/11/03 10:29:22;;;;;;;11.18;2.38;;;14.70;99.90;;;;;;4954023;28;20035;-64
2022/11/03 10:31:50;;;;;;;10.85;2.08;;;13.90;99.90;;;;;;4935597;28;20062;-63
2022/11/03 10:34:38;;;;;;;8.73;2.28;;;14.70;99.90;;;;;;4936730;29;20039;-64
2022/11/03 10:37:21;;;;;;;9.88;2.88;;;14.70;99.90;;;;;;4951465;29;20040;-64
2022/11/03 10:39:49;;;;;;;6.15;2.30;;;14.70;99.90;;;;;;4933830;29;20050;-64
2022/11/03 10:42:23;;;;;;;11.10;2.45;;;14.70;99.90;;;;;;4937540;29;20051;-64
2022/11/03 10:44:53;;;;;;;9.43;1.90;;;14.70;99.90;;;;;;4954467;28;20491;-65
2022/11/03 10:47:30;;;;;;;7.63;1.95;;;14.80;99.90;;;;;;4935837;29;20438;-64
2022/11/03 10:49:56;;;;;;;13.35;2.60;;;;;;;;;;4954729;29;20050;-63
2022/11/03 10:52:24;;;;;;;7.82;2.83;;;14.90;99.90;;;;;;4926311;29;20044;-64
2022/11/03 10:54:51;;;;;;;6.28;1.90;;;14.80;99.90;;;;;;4942168;29;20533;-64
2022/11/03 10:57:18;;;;;;;9.88;2.80;;;14.80;99.90;;;;;;4930045;29;20051;-64
2022/11/03 10:59:47;;;;;;;9.63;3.25;;;14.90;99.90;;;;;;4933462;28;20083;-64
2022/11/03 11:02:18;;;;;;;11.18;2.83;;;15.00;99.90;;;;;;4943451;29;20039;-65
2022/11/03 11:04:50;;;;;;;10.50;2.50;;;15.00;99.90;;;;;;4936814;28;20461;-63
2022/11/03 11:07:38;;;;;;;9.73;2.05;;;15.00;99.90;;;;;;4937198;29;20050;-64
2022/11/03 11:10:19;;;;;;;11.38;2.65;;;15.00;99.90;;;;;;4952601;28;20035;-65
2022/11/03 11:13:22;;;;;;;10.48;2.70;;;15.10;99.90;;;;;;4941523;29;20453;-65
2022/11/03 11:15:53;;;;;;;9.00;2.67;;;15.00;99.90;;;;;;4941090;29;20134;-64
2022/11/03 11:18:27;;;;;;;7.65;2.47;;;15.20;99.90;;;;;;4958221;29;20077;-65
2022/11/03 11:20:54;;;;;;;6.32;1.95;;;15.20;99.90;;;;;;4938004;29;20410;-64
2022/11/03 11:23:26;;;;;;;6.72;2.30;;;15.20;99.90;;;;;;4958267;29;20055;-64
2022/11/03 11:26:24;;;;;;;10.02;2.75;;;15.20;99.90;;;;;;4938630;28;20450;-64
2022/11/03 11:29:34;;;;;;;9.15;2.15;;;15.10;99.90;;;;;;4914388;29;20051;-64
2022/11/03 11:32:38;;;;;;;8.30;2.83;;;15.20;99.90;;;;;;4957129;29;20047;-64
2022/11/03 11:35:08;;;;;;;8.95;2.60;;;15.10;99.90;;;;;;4937832;29;20095;-65
2022/11/03 11:37:35;;;;;;;6.82;2.33;;;14.90;99.90;;;;;;4950224;29;20044;-65
2022/11/03 11:40:02;;;;;;;9.40;1.90;;;15.10;99.90;;;;;;4938246;29;20043;-65
2022/11/03 11:42:28;;;;;;;6.47;2.13;;;;;;;;;;4954658;29;20043;-65
2022/11/03 11:44:56;;;;;;;10.40;2.53;;;15.10;99.90;;;;;;4938461;29;20473;-65
2022/11/03 11:47:26;;;;;;;6.07;1.67;;;15.10;99.90;;;;;;4953394;29;20524;-64
2022/11/03 11:50:08;;;;;;;12.90;2.25;;;15.10;99.90;;;;;;4921522;29;20398;-65
2022/11/03 11:52:52;;;;;;;7.68;1.73;;;15.00;99.90;;;;;;4949770;29;20387;-65
2022/11/03 11:55:18;;;;;;;10.48;1.85;;;;;;;;;;4916458;29;20043;-64
2022/11/03 11:57:45;;;;;;;12.45;2.85;;;15.00;99.90;;;;;;4950401;29;20106;-65
2022/11/03 12:00:48;;;;;;;8.35;2.47;;;15.10;99.90;;;;;;4953919;28;20074;-65
2022/11/03 12:03:14;;;;;;;7.25;2.20;;;15.20;99.90;;;;;;4955037;28;20047;-64
2022/11/03 12:05:40;;;;;;;5.65;1.73;;;15.10;99.90;;;;;;4953892;28;20046;-62
2022/11/03 12:08:23;;;;;;;4.30;1.88;;;15.10;99.90;;;;;;4955170;28;20039;-62
2022/11/03 12:10:53;;;;;;;6.22;2.20;;;15.10;99.90;;;;;;4956082;28;20378;-62
2022/11/03 12:13:50;;;;;;;12.68;2.67;;;15.00;99.90;;;;;;4937770;28;20490;-63
2022/11/03 12:16:29;;;;;;;9.40;1.95;;;15.00;99.90;;;;;;4955860;28;20379;-63
2022/11/03 12:18:55;;;;;;;12.05;2.92;;;15.00;99.90;;;;;;4937366;28;20505;-63
2022/11/03 12:21:47;;;;;;;8.68;2.45;;;15.00;99.90;;;;;;4938475;29;20078;-62
2022/11/03 12:24:31;;;;;;;5.93;1.48;;;15.00;99.90;;;;;;4953593;29;20445;-64
2022/11/03 12:26:58;;;;;;;4.20;1.63;;;15.10;99.90;;;;;;4940808;29;20043;-65
2022/11/03 12:29:23;;;;;;;6.40;1.73;;;15.10;99.90;;;;;;4956233;28;20043;-65
2022/11/03 12:31:49;;;;;;;7.18;1.48;;;15.10;99.90;;;;;;4935012;29;20042;-65
2022/11/03 12:34:15;;;;;;;6.55;2.22;;;;;;;;;;4948101;28;20405;-66
2022/11/03 12:36:42;;;;;;;9.07;2.97;;;15.10;99.90;;;;;;4956802;29;20044;-67
2022/11/03 12:39:08;;;;;;;7.10;2.10;;;15.20;99.90;;;;;;4955388;29;20054;-64
2022/11/03 12:41:33;;;;;;;5.88;1.92;;;15.20;99.90;;;;;;4956623;29;20043;-64
2022/11/03 12:43:59;;;;;;;7.63;1.70;;;15.30;99.90;;;;;;4937524;29;20512;-65
2022/11/03 12:46:25;;;;;;;6.55;2.10;;;15.30;99.90;;;;;;4938593;28;20039;-64
2022/11/03 12:48:51;;;;;;;7.43;1.83;;;15.30;99.90;;;;;;4955401;28;20051;-63
2022/11/03 12:51:21;;;;;;;6.03;1.70;;;15.30;99.90;;;;;;4956217;29;20044;-64
2022/11/03 12:53:47;;;;;;;8.77;1.75;;;15.40;99.90;;;;;;4954496;29;20047;-65
2022/11/03 12:56:14;;;;;;;7.65;1.60;;;15.30;99.90;;;;;;4954764;29;20409;-65
2022/11/03 12:58:40;;;;;;;7.63;1.83;;;15.30;99.90;;;;;;4937056;28;20039;-65
2022/11/03 13:01:06;;;;;;;6.95;2.08;;;15.30;99.90;;;;;;4936763;29;20143;-63
2022/11/03 13:03:32;;;;;;;8.57;2.17;;;15.30;99.90;;;;;;4951931;28;20035;-62
2022/11/03 13:05:59;;;;;;;5.97;1.70;;;15.30;99.90;;;;;;4956033;28;20043;-62
2022/11/03 13:08:26;;;;;;;7.05;1.98;;;15.30;99.90;;;;;;4954176;28;20057;-62
2022/11/03 13:10:51;;;;;;;8.20;1.80;;;15.30;99.90;;;;;;4936101;28;20039;-62
2022/11/03 13:13:18;;;;;;;7.60;2.35;;;15.10;99.90;;;;;;4956132;28;20509;-61
2022/11/03 13:15:44;;;;;;;5.65;1.73;;;15.30;99.90;;;;;;4954211;29;20046;-64
2022/11/03 13:18:09;;;;;;;7.53;1.65;;;15.20;99.90;;;;;;4936733;29;20035;-61
2022/11/03 13:20:35;;;;;;;8.57;1.65;;;15.20;99.90;;;;;;4918260;28;20035;-61
2022/11/03 13:23:02;;;;;;;6.53;1.90;;;15.20;99.90;;;;;;4935310;28;20564;-61
2022/11/03 13:25:28;;;;;;;7.03;3.42;;;15.20;99.90;;;;;;4947432;28;20039;-61